createdAt,value
2023-02-08T00:00:06.458Z,8.23
2023-02-08T00:02:34.387Z,8.57
2023-02-08T00:05:01.068Z,9.83
2023-02-08T00:07:27.829Z,9.03
2023-02-08T00:09:54.426Z,9.37
2023-02-08T00:12:21.083Z,10.10
2023-02-08T00:14:47.689Z,11.07
2023-02-08T00:17:14.335Z,11.40
2023-02-08T00:19:41.056Z,9.63
2023-02-08T00:22:07.762Z,8.07
2023-02-08T00:24:34.406Z,7.80
2023-02-08T00:27:00.977Z,7.47
2023-02-08T00:29:27.592Z,7.47
2023-02-08T00:31:54.300Z,7.53
2023-02-08T00:34:20.938Z,7.47
2023-02-08T00:36:47.617Z,6.33
2023-02-08T00:39:14.451Z,7.50
2023-02-08T00:41:41.059Z,7.40
2023-02-08T00:44:07.716Z,7.60
2023-02-08T00:46:35.255Z,7.47
2023-02-08T00:49:01.955Z,6.90
2023-02-08T00:51:28.608Z,5.77
2023-02-08T00:53:55.227Z,7.07
2023-02-08T00:56:22.756Z,6.53
2023-02-08T00:58:49.341Z,5.57
2023-02-08T01:01:17.291Z,6.83
2023-02-08T01:03:44.043Z,6.10
2023-02-08T01:06:15.222Z,7.27
2023-02-08T01:08:41.916Z,7.33
2023-02-08T01:11:13.079Z,8.17
2023-02-08T01:13:40.577Z,7.83
2023-02-08T01:16:12.115Z,6.93
2023-02-08T01:18:40.974Z,7.93
2023-02-08T01:21:10.395Z,9.30
2023-02-08T01:23:39.940Z,9.00
2023-02-08T01:26:08.106Z,8.80
2023-02-08T01:28:35.147Z,9.03
2023-02-08T01:31:10.241Z,8.30
2023-02-08T01:33:37.831Z,6.60
2023-02-08T01:36:05.003Z,7.63
2023-02-08T01:38:32.583Z,5.93
2023-02-08T01:40:59.823Z,6.87
2023-02-08T01:43:31.700Z,6.90
2023-02-08T01:45:58.490Z,6.83
2023-02-08T01:48:27.202Z,6.80
2023-02-08T01:51:12.811Z,7.20
2023-02-08T01:53:40.269Z,7.93
2023-02-08T01:56:15.155Z,8.00
2023-02-08T01:58:46.573Z,7.80
2023-02-08T02:01:14.013Z,8.73
2023-02-08T02:03:42.486Z,8.93
2023-02-08T02:06:32.926Z,11.13
2023-02-08T02:09:15.016Z,8.20
2023-02-08T02:11:43.021Z,9.40
2023-02-08T02:14:10.646Z,7.43
2023-02-08T02:16:37.585Z,6.30
2023-02-08T02:19:11.600Z,8.40
2023-02-08T02:22:05.706Z,6.73
2023-02-08T02:24:38.410Z,6.40
2023-02-08T02:27:17.122Z,6.90
2023-02-08T02:30:02.567Z,5.87
2023-02-08T02:32:50.908Z,6.97
2023-02-08T02:35:47.457Z,8.20
2023-02-08T02:38:31.505Z,7.67
2023-02-08T02:41:12.664Z,6.47
2023-02-08T02:43:42.214Z,5.90
2023-02-08T02:46:21.716Z,6.20
2023-02-08T02:49:10.417Z,5.90
2023-02-08T02:51:49.215Z,6.37
2023-02-08T02:54:33.008Z,7.20
2023-02-08T02:57:03.356Z,7.03
2023-02-08T02:59:33.748Z,6.60
2023-02-08T03:02:01.821Z,7.17
2023-02-08T03:04:34.592Z,7.20
2023-02-08T03:07:26.282Z,8.23
2023-02-08T03:10:14.134Z,7.67
2023-02-08T03:12:53.025Z,7.50
2023-02-08T03:15:19.628Z,7.50
2023-02-08T03:18:10.894Z,7.30
2023-02-08T03:20:53.332Z,7.23
2023-02-08T03:23:27.923Z,6.83
2023-02-08T03:26:05.542Z,6.73
2023-02-08T03:28:39.796Z,7.93
2023-02-08T03:31:18.273Z,7.00
2023-02-08T03:33:47.926Z,8.13
2023-02-08T03:36:33.043Z,7.70
2023-02-08T03:39:05.351Z,7.37
2023-02-08T03:41:36.398Z,8.30
2023-02-08T03:44:06.751Z,7.70
2023-02-08T03:47:11.486Z,6.53
2023-02-08T03:49:39.453Z,7.70
2023-02-08T03:52:09.843Z,7.13
2023-02-08T03:54:43.041Z,10.27
2023-02-08T03:57:18.456Z,8.60
2023-02-08T03:59:54.759Z,9.17
2023-02-08T04:02:24.710Z,7.47
2023-02-08T04:04:52.517Z,7.97
2023-02-08T04:07:19.935Z,8.60
2023-02-08T04:09:46.774Z,8.50
2023-02-08T04:12:14.025Z,6.97
2023-02-08T04:14:40.695Z,8.97
2023-02-08T04:17:07.342Z,8.87
2023-02-08T04:19:34.015Z,8.03
2023-02-08T04:22:00.744Z,6.60
2023-02-08T04:24:27.405Z,8.43
2023-02-08T04:26:54.032Z,9.33
2023-02-08T04:29:20.629Z,6.47
2023-02-08T04:31:47.319Z,6.57
2023-02-08T04:34:13.990Z,7.80
2023-02-08T04:36:40.646Z,6.73
2023-02-08T04:39:07.262Z,7.80
2023-02-08T04:41:33.903Z,9.43
2023-02-08T04:44:00.559Z,35.50
2023-02-08T04:46:27.189Z,26.73
2023-02-08T04:48:53.854Z,16.10
2023-02-08T04:51:20.603Z,11.57
2023-02-08T04:53:47.197Z,9.83
2023-02-08T04:56:14.545Z,8.63
2023-02-08T04:58:41.124Z,8.50
2023-02-08T05:01:08.352Z,9.60
2023-02-08T05:03:35.726Z,8.60
2023-02-08T05:06:02.549Z,7.83
2023-02-08T05:08:29.179Z,9.70
2023-02-08T05:10:55.809Z,8.27
2023-02-08T05:13:22.413Z,7.90
2023-02-08T05:15:49.153Z,9.60
2023-02-08T05:18:15.736Z,8.73
2023-02-08T05:20:42.616Z,6.23
2023-02-08T05:23:09.427Z,7.67
2023-02-08T05:25:38.090Z,6.90
2023-02-08T05:28:04.864Z,7.80
2023-02-08T05:30:31.783Z,8.37
2023-02-08T05:32:58.445Z,16.70
2023-02-08T05:35:25.088Z,17.27
2023-02-08T05:37:51.674Z,17.77
2023-02-08T05:40:18.444Z,24.17
2023-02-08T05:42:45.121Z,19.07
2023-02-08T05:45:11.697Z,17.00
2023-02-08T05:47:38.349Z,10.37
2023-02-08T05:50:05.515Z,10.17
2023-02-08T05:52:32.161Z,9.90
2023-02-08T05:54:58.812Z,9.90
2023-02-08T05:57:25.641Z,9.90
2023-02-08T05:59:52.252Z,9.53
2023-02-08T06:02:18.848Z,10.57
2023-02-08T06:04:46.149Z,11.30
2023-02-08T06:07:12.796Z,10.90
2023-02-08T06:09:39.383Z,9.93
2023-02-08T06:12:07.164Z,8.83
2023-02-08T06:14:33.811Z,9.43
2023-02-08T06:17:00.406Z,12.60
2023-02-08T06:19:27.055Z,13.73
2023-02-08T06:21:53.656Z,12.17
2023-02-08T06:24:20.265Z,14.90
2023-02-08T06:26:46.895Z,17.07
2023-02-08T06:29:13.510Z,17.40
2023-02-08T06:31:40.217Z,15.53
2023-02-08T06:34:07.230Z,22.40
2023-02-08T06:36:34.011Z,22.53
2023-02-08T06:39:00.615Z,20.03
2023-02-08T06:41:27.264Z,18.90
2023-02-08T06:43:53.850Z,18.10
2023-02-08T06:46:20.521Z,18.43
2023-02-08T06:48:47.081Z,20.37
2023-02-08T06:51:13.683Z,18.97
2023-02-08T06:53:40.250Z,19.60
2023-02-08T06:56:07.116Z,14.20
2023-02-08T06:58:33.724Z,13.90
2023-02-08T07:01:00.380Z,16.03
2023-02-08T07:03:27.022Z,14.20
2023-02-08T07:06:04.421Z,15.67
2023-02-08T07:08:32.880Z,14.43
2023-02-08T07:10:59.453Z,13.20
2023-02-08T07:13:26.024Z,12.63
2023-02-08T07:15:52.578Z,12.03
2023-02-08T07:18:19.225Z,15.53
2023-02-08T07:20:45.909Z,12.90
2023-02-08T07:23:12.550Z,19.30
2023-02-08T07:25:39.143Z,18.33
2023-02-08T07:28:05.843Z,23.43
2023-02-08T07:30:32.561Z,38.23
2023-02-08T07:32:59.283Z,33.67
2023-02-08T07:35:26.002Z,22.03
2023-02-08T07:37:52.627Z,25.20
2023-02-08T07:40:19.273Z,21.80
2023-02-08T07:42:45.901Z,32.27
2023-02-08T07:45:24.432Z,24.83
2023-02-08T07:47:51.023Z,21.83
2023-02-08T07:50:17.800Z,19.03
2023-02-08T07:52:46.209Z,18.57
2023-02-08T07:55:17.116Z,18.53
2023-02-08T07:57:45.089Z,19.73
2023-02-08T08:00:12.765Z,18.80
2023-02-08T08:02:39.655Z,21.77
2023-02-08T08:05:07.112Z,24.60
2023-02-08T08:07:34.053Z,23.03
2023-02-08T08:10:00.642Z,22.60
2023-02-08T08:12:27.333Z,27.53
2023-02-08T08:14:53.949Z,28.60
2023-02-08T08:17:20.543Z,25.70
2023-02-08T08:19:47.223Z,22.80
2023-02-08T08:22:13.855Z,21.97
2023-02-08T08:24:40.422Z,19.47
2023-02-08T08:27:07.245Z,21.23
2023-02-08T08:29:37.899Z,19.10
2023-02-08T08:32:05.098Z,16.40
2023-02-08T08:34:31.951Z,18.43
2023-02-08T08:37:02.958Z,20.10
2023-02-08T08:39:29.695Z,20.20
2023-02-08T08:42:00.972Z,22.90
2023-02-08T08:44:27.592Z,21.13
2023-02-08T08:46:58.034Z,21.87
2023-02-08T08:49:25.950Z,15.33
2023-02-08T08:51:52.685Z,18.47
2023-02-08T08:54:19.856Z,19.40
2023-02-08T08:56:46.483Z,17.90
2023-02-08T08:59:13.354Z,17.03
2023-02-08T09:01:42.225Z,14.80
2023-02-08T09:04:11.863Z,17.30
2023-02-08T09:06:38.916Z,19.00
2023-02-08T09:09:06.439Z,20.07
2023-02-08T09:11:33.411Z,18.33
2023-02-08T09:14:04.541Z,15.90
2023-02-08T09:16:32.261Z,19.13
2023-02-08T09:19:06.908Z,19.27
2023-02-08T09:21:34.298Z,18.10
2023-02-08T09:24:01.940Z,16.80
2023-02-08T09:26:29.093Z,20.23
2023-02-08T09:28:56.055Z,17.97
2023-02-08T09:31:25.928Z,17.67
2023-02-08T09:33:54.661Z,17.53
2023-02-08T09:36:22.870Z,17.37
2023-02-08T09:38:51.676Z,18.97
2023-02-08T09:41:35.797Z,19.53
2023-02-08T09:44:02.331Z,18.13
2023-02-08T09:46:32.488Z,17.00
2023-02-08T09:49:04.249Z,20.30
2023-02-08T09:51:37.433Z,15.87
2023-02-08T09:54:26.398Z,16.60
2023-02-08T09:56:54.092Z,18.10
2023-02-08T09:59:26.996Z,18.17
2023-02-08T10:02:00.503Z,16.90
2023-02-08T10:04:45.751Z,19.47
2023-02-08T10:07:12.589Z,15.73
2023-02-08T10:09:39.304Z,16.33
2023-02-08T10:12:39.022Z,16.60
2023-02-08T10:15:23.236Z,18.00
2023-02-08T10:18:29.181Z,18.17
2023-02-08T10:21:17.377Z,18.33
2023-02-08T10:23:59.070Z,17.50
2023-02-08T10:26:35.427Z,17.27
2023-02-08T10:30:03.882Z,14.63
2023-02-08T10:32:36.359Z,15.70
2023-02-08T10:35:13.467Z,15.70
2023-02-08T10:37:44.626Z,14.97
2023-02-08T10:40:14.988Z,12.77
2023-02-08T10:42:47.534Z,14.37
2023-02-08T10:45:42.009Z,15.07
2023-02-08T10:48:15.908Z,16.00
2023-02-08T10:50:47.375Z,14.70
2023-02-08T10:53:20.051Z,12.10
2023-02-08T10:55:48.131Z,17.17
2023-02-08T10:58:18.256Z,14.83
2023-02-08T11:00:45.791Z,14.83
2023-02-08T11:03:23.503Z,11.57
2023-02-08T11:05:51.036Z,13.67
2023-02-08T11:08:23.131Z,13.70
2023-02-08T11:11:10.321Z,12.37
2023-02-08T11:13:39.992Z,14.17
2023-02-08T11:16:10.852Z,16.50
2023-02-08T11:18:53.989Z,14.00
2023-02-08T11:21:24.889Z,13.70
2023-02-08T11:23:53.877Z,10.10
2023-02-08T11:26:32.651Z,13.83
2023-02-08T11:29:11.846Z,12.90
2023-02-08T11:31:40.630Z,14.87
2023-02-08T11:34:10.409Z,13.03
2023-02-08T11:36:46.756Z,13.73
2023-02-08T11:39:22.980Z,12.97
2023-02-08T11:41:52.721Z,14.20
2023-02-08T11:44:30.227Z,15.90
2023-02-08T11:47:02.850Z,14.27
2023-02-08T11:49:38.959Z,14.57
2023-02-08T11:52:18.751Z,13.23
2023-02-08T11:54:45.342Z,13.80
2023-02-08T11:57:20.701Z,10.93
2023-02-08T11:59:49.448Z,11.47
2023-02-08T12:02:29.827Z,10.17
2023-02-08T12:04:58.607Z,12.70
2023-02-08T12:07:45.652Z,13.10
2023-02-08T12:10:49.886Z,12.60
2023-02-08T12:13:42.167Z,11.13
2023-02-08T12:16:18.050Z,11.30
2023-02-08T12:18:56.823Z,9.43
2023-02-08T12:21:29.605Z,11.47
2023-02-08T12:24:03.225Z,12.70
2023-02-08T12:26:58.106Z,9.93
2023-02-08T12:29:48.098Z,10.90
2023-02-08T12:32:51.422Z,13.27
2023-02-08T12:35:43.305Z,12.33
2023-02-08T12:39:30.866Z,15.47
2023-02-08T12:42:00.415Z,15.87
2023-02-08T12:44:39.156Z,11.53
2023-02-08T12:47:35.640Z,15.37
2023-02-08T12:50:31.469Z,15.07
2023-02-08T12:53:05.941Z,13.23
2023-02-08T12:55:41.979Z,15.83
2023-02-08T12:58:29.897Z,16.07
2023-02-08T13:01:19.175Z,11.17
2023-02-08T13:04:00.647Z,15.77
2023-02-08T13:06:34.462Z,15.63
2023-02-08T13:09:08.096Z,14.97
2023-02-08T13:11:53.349Z,12.90
2023-02-08T13:14:34.474Z,14.63
2023-02-08T13:17:10.652Z,16.87
2023-02-08T13:19:59.762Z,14.97
2023-02-08T13:22:31.636Z,12.60
2023-02-08T13:25:06.857Z,14.37
2023-02-08T13:27:34.744Z,10.53
2023-02-08T13:30:01.996Z,13.33
2023-02-08T13:32:34.841Z,13.33
2023-02-08T13:35:11.334Z,12.73
2023-02-08T13:37:38.666Z,12.77
2023-02-08T13:40:28.014Z,13.10
2023-02-08T13:43:01.178Z,13.20
2023-02-08T13:45:30.516Z,12.67
2023-02-08T13:48:08.255Z,12.73
2023-02-08T13:50:34.834Z,12.60
2023-02-08T13:53:02.659Z,12.77
2023-02-08T13:55:30.582Z,12.63
2023-02-08T13:58:05.413Z,13.57
2023-02-08T14:00:35.877Z,14.03
2023-02-08T14:03:15.796Z,12.37
2023-02-08T14:05:58.025Z,15.20
2023-02-08T14:08:36.146Z,11.50
2023-02-08T14:11:26.951Z,13.73
2023-02-08T14:14:02.787Z,13.17
2023-02-08T14:16:41.538Z,12.40
2023-02-08T14:19:18.158Z,10.70
2023-02-08T14:21:48.414Z,12.60
2023-02-08T14:24:25.962Z,12.07
2023-02-08T14:27:10.802Z,12.00
2023-02-08T14:29:38.095Z,11.50
2023-02-08T14:32:05.241Z,12.40
2023-02-08T14:34:37.734Z,12.30
2023-02-08T14:37:25.224Z,13.43
2023-02-08T14:40:23.590Z,12.43
2023-02-08T14:42:54.414Z,15.03
2023-02-08T14:45:34.746Z,11.53
2023-02-08T14:48:16.616Z,13.67
2023-02-08T14:50:53.743Z,15.23
2023-02-08T14:53:30.957Z,13.73
2023-02-08T14:56:13.543Z,14.93
2023-02-08T14:58:43.512Z,15.67
2023-02-08T15:01:44.067Z,13.70
2023-02-08T15:04:11.651Z,12.37
2023-02-08T15:06:38.308Z,13.57
2023-02-08T15:09:12.448Z,14.83
2023-02-08T15:11:40.593Z,16.53
2023-02-08T15:14:07.480Z,13.77
2023-02-08T15:16:43.227Z,15.00
2023-02-08T15:19:21.400Z,15.90
2023-02-08T15:21:48.220Z,14.63
2023-02-08T15:24:22.473Z,14.80
2023-02-08T15:26:54.821Z,15.10
2023-02-08T15:29:42.859Z,14.60
2023-02-08T15:32:18.213Z,14.97
2023-02-08T15:34:50.328Z,14.40
2023-02-08T15:37:18.846Z,15.63
2023-02-08T15:39:53.889Z,15.43
2023-02-08T15:42:28.848Z,14.97
2023-02-08T15:44:56.286Z,13.80
2023-02-08T15:47:28.470Z,14.57
2023-02-08T15:49:56.209Z,13.67
2023-02-08T15:52:25.668Z,14.00
2023-02-08T15:54:52.456Z,13.17
2023-02-08T15:57:28.035Z,14.00
2023-02-08T15:59:55.626Z,13.77
2023-02-08T16:02:24.854Z,14.03
2023-02-08T16:04:51.626Z,12.20
2023-02-08T16:07:28.904Z,13.47
2023-02-08T16:09:56.307Z,16.30
2023-02-08T16:12:25.245Z,11.87
2023-02-08T16:14:53.075Z,11.53
2023-02-08T16:17:28.840Z,13.57
2023-02-08T16:19:55.473Z,12.83
2023-02-08T16:22:25.869Z,13.77
2023-02-08T16:24:52.581Z,13.00
2023-02-08T16:27:31.124Z,14.30
2023-02-08T16:29:59.166Z,13.00
2023-02-08T16:32:32.456Z,13.70
2023-02-08T16:35:01.368Z,13.80
2023-02-08T16:37:34.985Z,14.57
2023-02-08T16:40:43.795Z,13.87
2023-02-08T16:43:24.545Z,12.07
2023-02-08T16:46:09.205Z,11.90
2023-02-08T16:48:41.290Z,13.33
2023-02-08T16:51:14.634Z,14.43
2023-02-08T16:53:42.793Z,12.40
2023-02-08T16:56:11.307Z,14.27
2023-02-08T16:58:38.257Z,14.90
2023-02-08T17:01:05.303Z,13.53
2023-02-08T17:03:32.782Z,13.00
2023-02-08T17:06:01.065Z,14.50
2023-02-08T17:08:28.137Z,16.57
2023-02-08T17:10:58.944Z,14.90
2023-02-08T17:13:28.553Z,13.07
2023-02-08T17:15:55.451Z,15.70
2023-02-08T17:18:22.399Z,14.67
2023-02-08T17:20:48.996Z,14.43
2023-02-08T17:23:15.918Z,15.40
2023-02-08T17:25:43.639Z,14.00
2023-02-08T17:28:20.984Z,14.10
2023-02-08T17:30:49.727Z,13.30
2023-02-08T17:33:19.788Z,16.43
2023-02-08T17:35:48.529Z,16.77
2023-02-08T17:38:15.560Z,17.40
2023-02-08T17:40:43.504Z,20.27
2023-02-08T17:43:11.210Z,22.50
2023-02-08T17:45:39.427Z,17.40
2023-02-08T17:48:06.577Z,23.50
2023-02-08T17:50:33.384Z,19.03
2023-02-08T17:53:00.016Z,17.57
2023-02-08T17:55:26.618Z,15.60
2023-02-08T17:57:53.729Z,16.60
2023-02-08T18:00:22.599Z,18.23
2023-02-08T18:02:51.791Z,17.73
2023-02-08T18:05:23.315Z,16.23
2023-02-08T18:07:50.747Z,17.10
2023-02-08T18:10:17.437Z,18.23
2023-02-08T18:12:44.381Z,16.67
2023-02-08T18:15:14.745Z,16.37
2023-02-08T18:17:41.989Z,15.53
2023-02-08T18:20:10.185Z,19.93
2023-02-08T18:22:38.076Z,18.83
2023-02-08T18:25:05.581Z,24.50
2023-02-08T18:27:32.478Z,19.40
2023-02-08T18:29:59.735Z,16.90
2023-02-08T18:32:28.032Z,16.53
2023-02-08T18:34:55.400Z,18.23
2023-02-08T18:37:23.178Z,16.80
2023-02-08T18:39:51.328Z,17.90
2023-02-08T18:42:18.165Z,16.80
2023-02-08T18:44:44.754Z,19.13
2023-02-08T18:47:11.440Z,18.93
2023-02-08T18:49:40.757Z,17.20
2023-02-08T18:52:13.699Z,17.07
2023-02-08T18:54:40.370Z,39.53
2023-02-08T18:57:10.667Z,20.67
2023-02-08T18:59:38.437Z,22.57
2023-02-08T19:02:07.079Z,25.70
2023-02-08T19:04:38.640Z,20.57
2023-02-08T19:07:06.013Z,19.03
2023-02-08T19:09:37.705Z,18.80
2023-02-08T19:12:04.974Z,17.50
2023-02-08T19:14:31.812Z,15.43
2023-02-08T19:16:58.464Z,13.60
2023-02-08T19:19:25.239Z,15.70
2023-02-08T19:21:52.393Z,15.07
2023-02-08T19:24:21.951Z,14.50
2023-02-08T19:26:48.646Z,13.53
2023-02-08T19:29:17.656Z,14.30
2023-02-08T19:31:45.396Z,13.73
2023-02-08T19:34:13.026Z,12.30
2023-02-08T19:36:46.482Z,13.53
2023-02-08T19:39:16.521Z,13.10
2023-02-08T19:41:45.482Z,15.03
2023-02-08T19:44:15.034Z,15.40
2023-02-08T19:46:45.390Z,14.63
2023-02-08T19:49:13.296Z,15.50
2023-02-08T19:51:40.303Z,14.67
2023-02-08T19:54:10.142Z,15.13
2023-02-08T19:56:37.125Z,15.93
2023-02-08T19:59:06.085Z,15.43
2023-02-08T20:01:35.363Z,16.30
2023-02-08T20:04:03.206Z,14.63
2023-02-08T20:06:33.637Z,14.13
2023-02-08T20:09:00.590Z,14.90
2023-02-08T20:11:30.689Z,14.20
2023-02-08T20:13:58.886Z,13.50
2023-02-08T20:16:29.364Z,17.00
2023-02-08T20:18:58.368Z,16.23
2023-02-08T20:21:25.098Z,14.77
2023-02-08T20:23:52.350Z,15.13
2023-02-08T20:26:27.223Z,15.60
2023-02-08T20:28:59.415Z,20.20
2023-02-08T20:31:31.905Z,14.63
2023-02-08T20:34:02.316Z,13.20
2023-02-08T20:36:38.544Z,13.30
2023-02-08T20:39:06.985Z,12.73
2023-02-08T20:41:34.893Z,12.00
2023-02-08T20:44:01.738Z,10.50
2023-02-08T20:46:31.478Z,10.10
2023-02-08T20:49:00.285Z,10.03
2023-02-08T20:51:27.832Z,9.47
2023-02-08T20:53:56.236Z,8.20
2023-02-08T20:56:26.494Z,8.90
2023-02-08T20:58:55.271Z,8.90
2023-02-08T21:01:27.758Z,9.47
2023-02-08T21:03:56.572Z,9.70
2023-02-08T21:06:29.522Z,10.43
2023-02-08T21:09:03.479Z,9.50
2023-02-08T21:11:32.260Z,9.03
2023-02-08T21:14:00.231Z,8.00
2023-02-08T21:16:27.316Z,10.23
2023-02-08T21:18:54.804Z,9.27
2023-02-08T21:21:21.750Z,9.70
2023-02-08T21:23:48.480Z,8.77
2023-02-08T21:26:23.487Z,9.03
2023-02-08T21:28:55.358Z,9.50
2023-02-08T21:31:24.138Z,9.07
2023-02-08T21:33:51.627Z,10.97
2023-02-08T21:36:22.512Z,10.27
2023-02-08T21:38:49.478Z,10.17
2023-02-08T21:41:27.769Z,7.70
2023-02-08T21:43:57.200Z,9.23
2023-02-08T21:46:24.907Z,9.20
2023-02-08T21:49:10.358Z,10.23
2023-02-08T21:51:55.693Z,9.20
2023-02-08T21:54:46.410Z,9.33
2023-02-08T21:57:19.349Z,10.17
2023-02-08T21:59:47.617Z,10.97
2023-02-08T22:02:25.690Z,11.97
2023-02-08T22:04:54.432Z,10.40
2023-02-08T22:07:21.508Z,13.03
2023-02-08T22:09:49.432Z,11.87
2023-02-08T22:12:18.593Z,12.97
2023-02-08T22:14:45.199Z,12.07
2023-02-08T22:17:11.815Z,12.00
2023-02-08T22:19:40.389Z,14.33
2023-02-08T22:22:08.058Z,11.83
2023-02-08T22:24:36.039Z,11.60
2023-02-08T22:27:02.912Z,11.10
2023-02-08T22:29:29.594Z,8.03
2023-02-08T22:31:56.517Z,13.53
2023-02-08T22:34:24.005Z,11.53
2023-02-08T22:36:50.629Z,9.60
2023-02-08T22:39:17.220Z,10.03
2023-02-08T22:41:43.879Z,9.40
2023-02-08T22:44:10.592Z,11.03
2023-02-08T22:46:37.500Z,10.27
2023-02-08T22:49:04.180Z,11.27
2023-02-08T22:51:30.881Z,15.50
2023-02-08T22:53:57.564Z,15.87
2023-02-08T22:56:24.191Z,12.00
2023-02-08T22:58:50.831Z,13.40
2023-02-08T23:01:17.685Z,13.33
2023-02-08T23:03:44.633Z,12.07
2023-02-08T23:06:15.710Z,12.10
2023-02-08T23:08:42.546Z,11.37
2023-02-08T23:11:12.260Z,10.20
2023-02-08T23:13:38.935Z,11.60
2023-02-08T23:16:06.075Z,11.00
2023-02-08T23:18:32.733Z,10.53
2023-02-08T23:21:06.050Z,8.87
2023-02-08T23:23:32.756Z,9.60
2023-02-08T23:25:59.491Z,11.27
2023-02-08T23:28:26.232Z,11.57
2023-02-08T23:30:52.909Z,12.63
2023-02-08T23:33:19.746Z,9.60
2023-02-08T23:35:46.486Z,11.93
2023-02-08T23:38:13.187Z,10.50
2023-02-08T23:40:41.311Z,10.80
2023-02-08T23:43:08.353Z,12.27
2023-02-08T23:45:36.256Z,11.80
2023-02-08T23:48:02.946Z,10.73
2023-02-08T23:50:29.562Z,10.83
2023-02-08T23:52:56.589Z,10.90
2023-02-08T23:55:23.940Z,9.60
2023-02-08T23:57:50.790Z,12.30
